Pagrindinis puslapis
METAR-TAF:

METAR-TAF

Oro uostai :

Kastris, Sent Lusija

platuma: 14-01N, ilguma: 061-00W, Aukštis: 2 m

Dabartinis oras

Ataskaita buvo paskelbta 2 valandos ir 7 minutes, ne 00:00 UTC
Vėjas 6 kt iš Rytų
Temperatūra 26°C
Drėgmė 89%
Slėgis 1013 hPa
Matomumas 10 km arba daugiau
Mažai debesys ne aukštis 2100 ft

METAR: TLPC 290000Z 10006KT 9999 FEW021 26/24 Q1013 NOSIG

Laikas: 22:07 (02:07 UTC)

Prognozė

Ataskaita buvo paskelbta 3 valandos ir 7 minutes, ne 23:00 UTC
Prognozė galioja nuo 29 metu 00 UTC su 29 metu 24 UTC
Vėjas 6 kt iš Rytų
Matomumas 10 km arba daugiau
Išsisklaidę debesys ne aukštis 2000 ft
Išsisklaidę debesys ne aukštis 4000 ft
Laikinai
nuo 29 metu 00 UTC su 29 metu 18 UTC
Mažai debesys ne aukštis 1200 ft, Liūtiniai kamuoliniai debesys.
Su prošvaistėmis ne aukštis 1400 ft
Su prošvaistėmis ne aukštis 3800 ft
lietus

TAF: TLPC 282300Z 2900/2924 10006KT 9999 SCT020 SCT040 TEMPO 2900/2918 SHRA FEW012CB BKN014 BKN038

Orai ataskaitas ir orų prognozės (METAR, TAF).

turimą stotys yra geltonos ir raudonos taškus žemėlapyje.

Perkelti pele per norėdami pamatyti stoties vardą.

Tada spustelėkite, norėdami matyti oro stebėjimo ir prognozės.

Norėdami pakeisti žemėlapį: spustelėkite ant žalios mygtukų su juodo kryžiaus žemyn,; žalią mygtuką su brūkšneliu, jei norite nutolinti; arba žalių rodyklių gretimoms žemėlapius.


METAR-TAF: